Time;durP1;ratioP1;P1;durP2;ratioP2;P2;SDS_P1;SDS_P2;PMS_P1;PMS_P2;Temp;Humidity;BMP_temperature;BMP_pressure;BME280_temperature;BME280_humidity;BME280_pressure;Samples;Min_cycle;Max_cycle;Signal;HPM_P1;HPM_P2
2022/11/16 00:01:00;;;;;;;10.63;6.38;;;;;;;;;;4990691;28;20058;-89
2022/11/16 00:03:26;;;;;;;14.20;6.80;;;;;;;;;;4985416;28;20030;-89
2022/11/16 00:05:56;;;;;;;11.82;6.97;;;;;;;;;;4989810;28;20508;-89
2022/11/16 00:08:22;;;;;;;16.92;7.22;;;;;;;;;;4970889;28;20041;-90
2022/11/16 00:10:48;;;;;;;11.48;6.82;;;;;;;;;;4986495;28;20109;-90
2022/11/16 00:13:14;;;;;;;10.80;6.38;;;;;;;;;;4977814;28;20145;-89
2022/11/16 00:15:40;;;;;;;10.73;6.32;;;;;;;;;;4970851;28;20030;-90
2022/11/16 00:18:06;;;;;;;12.52;7.18;;;;;;;;;;4988873;28;20124;-89
2022/11/16 00:20:32;;;;;;;12.50;7.32;;;;;;;;;;4985869;28;20443;-89
2022/11/16 00:22:58;;;;;;;12.93;6.80;;;;;;;;;;4984138;28;20026;-89
2022/11/16 00:25:24;;;;;;;18.35;7.63;;;;;;;;;;4988328;28;20033;-90
2022/11/16 00:27:50;;;;;;;14.40;7.45;;;;;;;;;;4984626;28;20084;-89
2022/11/16 00:30:17;;;;;;;10.23;7.45;;;;;;;;;;4972253;28;20045;-89
2022/11/16 00:32:43;;;;;;;11.70;6.32;;;;;;;;;;4975148;28;20395;-90
2022/11/16 00:35:09;;;;;;;15.05;6.30;;;;;;;;;;4972999;28;20482;-90
2022/11/16 00:37:35;;;;;;;13.05;7.53;;;;;;;;;;4968654;28;20057;-89
2022/11/16 00:40:01;;;;;;;14.85;7.07;;;;;;;;;;4974374;28;20025;-89
2022/11/16 00:42:27;;;;;;;13.68;7.68;;;;;;;;;;4971111;28;20041;-89
2022/11/16 00:44:53;;;;;;;16.15;7.15;;;;;;;;;;4984988;28;20074;-91
2022/11/16 00:47:19;;;;;;;13.27;7.38;;;;;;;;;;4974087;28;20039;-90
2022/11/16 00:49:45;;;;;;;13.27;7.75;;;;;;;;;;4982202;28;20034;-89
2022/11/16 00:52:11;;;;;;;17.33;7.63;;;;;;;;;;4988956;28;20032;-90
2022/11/16 00:54:37;;;;;;;17.33;7.32;;;;;;;;;;4970500;28;20129;-89
2022/11/16 00:57:03;;;;;;;11.90;6.47;;;;;;;;;;4964090;28;20121;-89
2022/11/16 00:59:29;;;;;;;13.90;6.53;;;;;;;;;;4983225;28;20185;-89
2022/11/16 01:01:55;;;;;;;18.20;7.97;;;;;;;;;;4987508;28;20619;-89
2022/11/16 01:04:21;;;;;;;16.77;8.40;;;;;;;;;;4967463;28;20124;-89
2022/11/16 01:06:47;;;;;;;14.50;7.63;;;;;;;;;;4972673;28;20244;-89
2022/11/16 01:09:13;;;;;;;20.65;8.75;;;;;;;;;;4969172;28;20123;-89
2022/11/16 01:14:23;;;;;;;14.95;7.55;;;;;;;;;;4986278;28;20100;-89
2022/11/16 01:16:50;;;;;;;15.35;7.90;;;;;;;;;;4982612;28;20060;-88
2022/11/16 01:19:16;;;;;;;16.10;7.50;;;;;;;;;;4974666;28;20465;-88
2022/11/16 01:21:42;;;;;;;13.85;8.57;;;;;;;;;;4974013;28;20121;-89
2022/11/16 01:24:08;;;;;;;17.08;7.65;;;;;;;;;;4988393;28;20030;-88
2022/11/16 01:26:34;;;;;;;12.52;7.65;;;;;;;;;;4983726;28;20034;-89
2022/11/16 01:29:00;;;;;;;16.30;8.40;;;;;;;;;;4969734;28;20133;-89
2022/11/16 01:31:26;;;;;;;16.77;8.25;;;;;;;;;;4986188;28;20500;-89
2022/11/16 01:33:52;;;;;;;14.57;8.38;;;;;;;;;;4986184;28;20034;-89
2022/11/16 01:36:18;;;;;;;13.25;7.63;;;;;;;;;;4976761;28;20030;-89
2022/11/16 01:38:45;;;;;;;16.75;8.23;;;;;;;;;;4984364;28;20497;-89
2022/11/16 01:41:13;;;;;;;20.88;8.27;;;;;;;;;;4982282;28;20949;-89
2022/11/16 01:43:57;;;;;;;17.33;7.32;;;;;;;;;;4982288;28;20089;-89
2022/11/16 01:46:23;;;;;;;12.27;6.90;;;;;;;;;;4982022;28;20034;-89
2022/11/16 01:48:51;;;;;;;15.40;7.32;;;;;;;;;;4989259;28;20037;-89
2022/11/16 01:51:17;;;;;;;16.55;7.05;;;;;;;;;;4997481;28;20444;-89
2022/11/16 01:53:43;;;;;;;12.90;7.32;;;;;;;;;;5003449;28;20026;-88
2022/11/16 01:56:09;;;;;;;14.55;7.30;;;;;;;;;;5023700;28;20036;-89
2022/11/16 01:58:35;;;;;;;12.27;6.78;;;;;;;;;;4988846;28;20132;-89
2022/11/16 02:01:01;;;;;;;13.52;7.22;;;;;;;;;;5005645;28;20029;-89
2022/11/16 02:03:27;;;;;;;13.50;6.80;;;;;;;;;;5003884;28;20025;-89
2022/11/16 02:05:53;;;;;;;12.63;7.03;;;;;;;;;;4988418;28;20108;-89
2022/11/16 02:11:14;;;;;;;18.52;7.53;;;;;;;;;;5019353;28;20063;-89
2022/11/16 02:13:49;;;;;;;15.88;7.68;;;;;;;;;;5007968;28;20030;-89
2022/11/16 02:16:15;;;;;;;13.77;6.88;;;;;;;;;;5003046;28;20452;-88
2022/11/16 02:19:04;;;;;;;12.77;7.20;;;;;;;;;;5003140;28;20034;-89
2022/11/16 02:21:33;;;;;;;14.07;7.38;;;;;;;;;;5018344;28;20021;-88
2022/11/16 02:24:15;;;;;;;15.07;7.25;;;;;;;;;;5025502;28;20053;-88
2022/11/16 02:27:00;;;;;;;13.55;6.55;;;;;;;;;;5008031;28;20591;-88
2022/11/16 02:29:34;;;;;;;12.68;6.90;;;;;;;;;;5005600;28;20479;-88
2022/11/16 02:32:13;;;;;;;14.27;6.32;;;;;;;;;;5002022;28;20026;-88
2022/11/16 02:34:42;;;;;;;12.95;6.57;;;;;;;;;;5022894;28;20485;-88
2022/11/16 02:37:09;;;;;;;14.85;7.15;;;;;;;;;;5024421;28;20033;-88
2022/11/16 02:39:36;;;;;;;15.23;6.38;;;;;;;;;;5018606;28;20072;-88
2022/11/16 02:42:03;;;;;;;13.77;6.38;;;;;;;;;;5001849;28;20025;-87
2022/11/16 02:44:32;;;;;;;14.95;7.20;;;;;;;;;;5004363;28;20168;-88
2022/11/16 02:46:59;;;;;;;16.33;6.18;;;;;;;;;;5021168;28;20021;-88
2022/11/16 02:49:27;;;;;;;12.77;6.88;;;;;;;;;;5018912;28;20692;-88
2022/11/16 02:51:54;;;;;;;13.55;6.40;;;;;;;;;;4989030;28;20046;-88
2022/11/16 02:54:21;;;;;;;14.98;6.93;;;;;;;;;;4966672;28;20516;-88
2022/11/16 02:56:47;;;;;;;15.70;6.00;;;;;;;;;;4987103;28;20125;-88
2022/11/16 02:59:13;;;;;;;16.70;7.20;;;;;;;;;;4977085;28;20141;-88
2022/11/16 03:01:41;;;;;;;13.98;5.57;;;;;;;;;;4997814;28;20025;-88
2022/11/16 03:04:10;;;;;;;12.15;6.07;;;;;;;;;;4981332;28;20461;-88
2022/11/16 03:06:38;;;;;;;16.88;6.28;;;;;;;;;;4979163;28;20037;-88
2022/11/16 03:09:10;;;;;;;12.40;6.53;;;;;;;;;;5000117;28;20113;-88
2022/11/16 03:14:23;;;;;;;14.60;7.78;;;;;;;;;;5002451;28;20632;-88
2022/11/16 03:16:52;;;;;;;14.13;6.97;;;;;;;;;;5000459;28;20557;-88
2022/11/16 03:19:45;;;;;;;15.75;6.38;;;;;;;;;;4982408;28;20133;-88
2022/11/16 03:22:14;;;;;;;16.60;6.93;;;;;;;;;;4987062;28;20087;-88
2022/11/16 03:24:47;;;;;;;16.77;7.20;;;;;;;;;;4987208;28;20026;-88
2022/11/16 03:27:16;;;;;;;17.08;6.63;;;;;;;;;;4987684;28;20069;-88
2022/11/16 03:29:51;;;;;;;17.25;6.28;;;;;;;;;;5008347;28;20563;-88
2022/11/16 03:32:29;;;;;;;13.90;6.38;;;;;;;;;;4983563;28;20041;-88
2022/11/16 03:35:06;;;;;;;10.38;5.88;;;;;;;;;;5010592;28;20040;-88
2022/11/16 03:37:34;;;;;;;18.58;6.82;;;;;;;;;;4986694;28;20040;-88
2022/11/16 03:40:01;;;;;;;23.02;7.85;;;;;;;;;;4988013;28;20025;-87
2022/11/16 03:42:28;;;;;;;16.85;7.63;;;;;;;;;;4999552;28;20061;-88
2022/11/16 03:44:54;;;;;;;14.65;7.22;;;;;;;;;;4982217;28;20030;-88
2022/11/16 03:47:23;;;;;;;14.25;7.32;;;;;;;;;;4981460;28;20032;-88
2022/11/16 03:49:49;;;;;;;21.15;7.75;;;;;;;;;;4980833;28;20069;-88
2022/11/16 03:52:16;;;;;;;13.73;6.75;;;;;;;;;;4980174;28;20078;-88
2022/11/16 03:54:42;;;;;;;14.23;7.43;;;;;;;;;;4984634;28;20041;-88
2022/11/16 03:57:14;;;;;;;17.05;8.10;;;;;;;;;;4985684;28;20076;-88
2022/11/16 03:59:42;;;;;;;15.10;7.22;;;;;;;;;;4997298;28;20041;-88
2022/11/16 04:02:08;;;;;;;13.15;6.38;;;;;;;;;;5003916;28;20017;-88
2022/11/16 04:24:32;;;;;;;27.48;8.02;;;;;;;;;;5001797;28;20099;-88
2022/11/16 04:29:19;;;;;;;15.80;8.27;;;;;;;;;;5001213;28;20048;-87
2022/11/16 04:40:05;;;;;;;20.65;9.90;;;;;;;;;;5001848;28;20048;-87
2022/11/16 04:42:31;;;;;;;16.02;8.32;;;;;;;;;;4969582;28;20049;-88
2022/11/16 04:47:41;;;;;;;20.48;8.88;;;;;;;;;;4986698;28;20053;-88
2022/11/16 04:50:11;;;;;;;19.67;8.40;;;;;;;;;;4966469;28;20033;-88
2022/11/16 04:52:37;;;;;;;16.67;8.68;;;;;;;;;;4989258;28;20029;-88
2022/11/16 04:55:03;;;;;;;22.20;8.93;;;;;;;;;;4988037;28;20042;-88
2022/11/16 04:57:29;;;;;;;25.02;8.50;;;;;;;;;;4985069;28;20040;-89
2022/11/16 04:59:55;;;;;;;22.95;10.15;;;;;;;;;;4985367;28;20034;-88
2022/11/16 05:02:21;;;;;;;19.35;8.98;;;;;;;;;;4986754;28;20024;-88
2022/11/16 05:04:47;;;;;;;14.73;8.50;;;;;;;;;;4971667;28;20104;-88
2022/11/16 05:07:14;;;;;;;20.52;9.15;;;;;;;;;;4990276;28;20076;-88
2022/11/16 05:09:41;;;;;;;22.35;9.52;;;;;;;;;;4985556;28;20040;-87
2022/11/16 05:12:13;;;;;;;24.63;9.85;;;;;;;;;;4972502;28;20034;-88
2022/11/16 05:14:39;;;;;;;20.38;9.02;;;;;;;;;;5003475;28;20041;-87
2022/11/16 05:17:05;;;;;;;15.27;8.70;;;;;;;;;;5003657;28;20034;-88
2022/11/16 05:22:25;;;;;;;16.27;6.72;;;;;;;;;;5000584;28;20057;-88
2022/11/16 05:24:51;;;;;;;23.30;10.85;;;;;;;;;;4982084;28;20972;-86
2022/11/16 05:27:18;;;;;;;20.73;9.98;;;;;;;;;;4997488;28;20560;-87
2022/11/16 05:29:44;;;;;;;19.08;8.98;;;;;;;;;;4984094;28;20040;-86
2022/11/16 05:32:11;;;;;;;27.58;11.02;;;;;;;;;;4984369;28;20093;-87
2022/11/16 05:34:37;;;;;;;20.88;9.70;;;;;;;;;;5000679;28;20521;-87
2022/11/16 05:37:03;;;;;;;19.35;9.88;;;;;;;;;;4987815;28;20125;-87
2022/11/16 05:39:29;;;;;;;24.13;10.15;;;;;;;;;;4986652;28;20026;-87
2022/11/16 05:41:55;;;;;;;26.40;10.63;;;;;;;;;;4985970;28;20042;-87
2022/11/16 05:44:22;;;;;;;20.25;8.80;;;;;;;;;;5005031;28;20030;-88
2022/11/16 05:46:48;;;;;;;21.35;10.32;;;;;;;;;;4988733;28;20026;-86
2022/11/16 05:49:15;;;;;;;26.30;11.05;;;;;;;;;;5003328;28;20092;-86
2022/11/16 05:51:48;;;;;;;24.55;10.32;;;;;;;;;;4985399;28;20047;-86
2022/11/16 05:54:17;;;;;;;30.05;10.20;;;;;;;;;;5002949;28;20030;-87
2022/11/16 05:56:44;;;;;;;21.00;10.25;;;;;;;;;;5005741;28;20054;-87
2022/11/16 05:59:13;;;;;;;22.40;10.25;;;;;;;;;;4971304;28;20108;-87
2022/11/16 06:01:39;;;;;;;23.65;9.88;;;;;;;;;;4984916;28;20074;-87
2022/11/16 06:04:06;;;;;;;20.98;10.50;;;;;;;;;;4982187;28;20038;-87
2022/11/16 06:06:32;;;;;;;26.35;10.52;;;;;;;;;;4971405;28;20032;-87
2022/11/16 06:08:58;;;;;;;24.45;11.20;;;;;;;;;;4986805;28;21140;-88
2022/11/16 06:11:24;;;;;;;25.95;10.95;;;;;;;;;;4983438;28;20545;-87
2022/11/16 06:13:50;;;;;;;22.60;11.07;;;;;;;;;;4967896;28;20073;-87
2022/11/16 06:16:16;;;;;;;25.02;10.43;;;;;;;;;;4986767;28;20025;-87
2022/11/16 06:18:44;;;;;;;24.77;11.13;;;;;;;;;;4983274;28;20096;-87
2022/11/16 06:21:17;;;;;;;25.15;10.95;;;;;;;;;;4969543;28;20557;-87
2022/11/16 06:23:46;;;;;;;21.45;10.70;;;;;;;;;;4975482;28;20057;-87
2022/11/16 06:26:16;;;;;;;20.10;9.68;;;;;;;;;;4969580;28;20034;-87
2022/11/16 06:28:43;;;;;;;23.00;10.07;;;;;;;;;;4969156;28;20038;-87
2022/11/16 06:31:12;;;;;;;31.50;11.20;;;;;;;;;;4963375;28;20456;-87
2022/11/16 06:33:39;;;;;;;33.65;10.88;;;;;;;;;;4994997;28;20135;-87
2022/11/16 06:36:05;;;;;;;26.73;10.80;;;;;;;;;;4979884;28;20130;-87
2022/11/16 06:38:37;;;;;;;22.77;10.02;;;;;;;;;;4967765;28;20034;-87
2022/11/16 06:41:30;;;;;;;27.63;10.60;;;;;;;;;;4977415;28;20057;-87
2022/11/16 06:44:05;;;;;;;21.90;11.32;;;;;;;;;;4977643;28;20053;-87
2022/11/16 06:46:34;;;;;;;21.20;8.13;;;;;;;;;;5002617;28;20477;-87
2022/11/16 06:49:06;;;;;;;19.58;10.23;;;;;;;;;;4983045;28;20041;-87
2022/11/16 06:51:43;;;;;;;31.88;11.95;;;;;;;;;;4971788;28;20046;-87
2022/11/16 06:54:09;;;;;;;22.90;8.10;;;;;;;;;;4987920;28;20046;-87
2022/11/16 06:56:35;;;;;;;24.80;9.95;;;;;;;;;;4964992;28;20080;-88
2022/11/16 06:59:01;;;;;;;28.75;11.93;;;;;;;;;;5003492;28;20038;-88
2022/11/16 07:01:27;;;;;;;25.23;9.50;;;;;;;;;;4992560;28;20033;-87
2022/11/16 07:04:00;;;;;;;19.90;9.82;;;;;;;;;;4982670;28;20041;-88
2022/11/16 07:06:26;;;;;;;28.60;10.40;;;;;;;;;;4993019;28;20054;-87
2022/11/16 07:08:52;;;;;;;23.33;11.15;;;;;;;;;;4992399;28;20129;-88
2022/11/16 07:11:19;;;;;;;24.00;10.18;;;;;;;;;;4991226;28;20117;-89
2022/11/16 07:13:47;;;;;;;14.50;7.93;;;;;;;;;;4989954;28;20285;-88
2022/11/16 07:16:13;;;;;;;17.17;9.00;;;;;;;;;;4982753;28;20429;-88
2022/11/16 07:18:52;;;;;;;19.80;8.55;;;;;;;;;;4987980;28;20601;-88
2022/11/16 07:21:18;;;;;;;28.70;9.68;;;;;;;;;;4981958;28;20077;-87
2022/11/16 07:23:45;;;;;;;21.30;9.95;;;;;;;;;;4980752;28;20116;-88
2022/11/16 07:26:11;;;;;;;17.52;8.70;;;;;;;;;;4981963;28;20026;-87
2022/11/16 07:28:37;;;;;;;20.15;9.25;;;;;;;;;;4961961;28;20045;-89
2022/11/16 07:31:13;;;;;;;22.85;9.35;;;;;;;;;;4992418;28;20029;-89
2022/11/16 07:33:39;;;;;;;;;;;;;;;;;;5000148;28;20566;-89
2022/11/16 07:36:06;;;;;;;17.13;8.15;;;;;;;;;;4993537;28;19997;-88
2022/11/16 07:38:33;;;;;;;18.50;9.25;;;;;;;;;;4994610;28;20573;-88
2022/11/16 07:41:08;;;;;;;23.98;10.27;;;;;;;;;;4972600;28;20080;-88
2022/11/16 07:43:34;;;;;;;;;;;;;;;;;;4954593;28;20045;-89
2022/11/16 07:46:04;;;;;;;18.85;7.97;;;;;;;;;;4977981;28;19917;-89
2022/11/16 07:48:34;;;;;;;16.48;7.57;;;;;;;;;;4955760;28;20053;-88
2022/11/16 07:51:04;;;;;;;18.60;7.78;;;;;;;;;;4991185;28;20049;-89
2022/11/16 07:53:31;;;;;;;18.67;7.32;;;;;;;;;;5003870;28;20810;-88
2022/11/16 07:55:57;;;;;;;21.35;8.00;;;;;;;;;;5022773;28;20096;-89
2022/11/16 07:58:23;;;;;;;14.07;7.55;;;;;;;;;;4994273;28;20037;-89
2022/11/16 08:00:49;;;;;;;16.67;7.30;;;;;;;;;;5007356;28;20025;-88
2022/11/16 08:03:16;;;;;;;18.85;9.45;;;;;;;;;;5001932;28;20052;-89
2022/11/16 08:05:43;;;;;;;19.48;9.35;;;;;;;;;;5007818;28;20030;-89
2022/11/16 08:08:10;;;;;;;23.05;9.57;;;;;;;;;;5004536;28;20116;-89
2022/11/16 08:10:36;;;;;;;21.83;9.73;;;;;;;;;;5023104;28;20049;-88
2022/11/16 08:13:02;;;;;;;21.75;9.48;;;;;;;;;;4986693;28;20045;-88
2022/11/16 08:15:28;;;;;;;24.42;11.27;;;;;;;;;;5006638;28;20091;-88
2022/11/16 08:17:57;;;;;;;28.38;10.15;;;;;;;;;;5002279;28;20045;-89
2022/11/16 08:20:23;;;;;;;20.33;10.55;;;;;;;;;;5027530;28;22276;-88
2022/11/16 08:22:49;;;;;;;22.98;10.52;;;;;;;;;;4989733;28;20060;-88
2022/11/16 08:25:16;;;;;;;25.30;10.50;;;;;;;;;;5006037;28;20133;-89
2022/11/16 08:27:46;;;;;;;24.63;10.40;;;;;;;;;;5000817;28;20511;-88
2022/11/16 08:30:12;;;;;;;26.90;10.38;;;;;;;;;;4986465;28;20489;-88
2022/11/16 08:32:40;;;;;;;24.73;10.20;;;;;;;;;;4980241;28;20048;-88
2022/11/16 08:35:07;;;;;;;29.02;10.93;;;;;;;;;;5000013;28;20163;-88
2022/11/16 08:37:33;;;;;;;26.75;10.82;;;;;;;;;;4981049;28;20476;-88
2022/11/16 08:39:59;;;;;;;27.10;11.07;;;;;;;;;;4990404;28;20033;-89
2022/11/16 08:42:25;;;;;;;30.67;11.30;;;;;;;;;;5004363;28;20059;-88
2022/11/16 08:44:51;;;;;;;26.17;10.82;;;;;;;;;;4988062;28;20038;-89
2022/11/16 08:47:17;;;;;;;20.00;9.73;;;;;;;;;;4990998;28;20376;-89
2022/11/16 08:49:44;;;;;;;24.55;10.82;;;;;;;;;;4989368;28;20366;-89
2022/11/16 08:52:10;;;;;;;23.17;10.13;;;;;;;;;;4992963;28;20450;-89
2022/11/16 08:54:36;;;;;;;21.45;10.02;;;;;;;;;;4988555;28;20524;-87
2022/11/16 08:57:04;;;;;;;21.52;10.05;;;;;;;;;;4985087;28;20084;-89
2022/11/16 08:59:30;;;;;;;25.63;10.85;;;;;;;;;;5020662;28;20741;-87
2022/11/16 09:01:56;;;;;;;23.25;10.02;;;;;;;;;;5006421;28;20037;-88
2022/11/16 09:04:23;;;;;;;25.85;11.25;;;;;;;;;;5004898;28;20033;-88
2022/11/16 09:06:51;;;;;;;22.58;10.70;;;;;;;;;;4990074;28;20067;-87
2022/11/16 09:09:17;;;;;;;22.00;10.77;;;;;;;;;;5003363;28;20026;-87
2022/11/16 09:11:43;;;;;;;24.92;10.88;;;;;;;;;;5021311;28;20091;-87
2022/11/16 09:14:09;;;;;;;24.92;10.85;;;;;;;;;;5019756;28;20038;-87
2022/11/16 09:16:35;;;;;;;24.17;11.27;;;;;;;;;;4990486;28;20076;-87
2022/11/16 09:19:01;;;;;;;28.35;11.63;;;;;;;;;;5003205;28;20069;-87
2022/11/16 09:21:30;;;;;;;25.58;10.55;;;;;;;;;;5005033;28;20561;-88
2022/11/16 09:23:57;;;;;;;24.73;10.68;;;;;;;;;;5005832;28;20084;-88
2022/11/16 09:26:23;;;;;;;24.65;9.60;;;;;;;;;;5019835;28;20370;-87
2022/11/16 09:28:57;;;;;;;19.77;9.55;;;;;;;;;;4989630;28;20038;-87
2022/11/16 09:31:23;;;;;;;18.65;9.75;;;;;;;;;;5004118;28;20029;-87
2022/11/16 09:33:50;;;;;;;21.23;9.82;;;;;;;;;;5003780;28;20064;-88
2022/11/16 09:36:16;;;;;;;17.98;8.82;;;;;;;;;;5024186;28;20067;-87
2022/11/16 09:38:43;;;;;;;18.83;9.35;;;;;;;;;;5006025;28;20389;-87
2022/11/16 09:41:15;;;;;;;21.23;9.48;;;;;;;;;;5003176;28;20017;-87
2022/11/16 09:43:41;;;;;;;18.25;9.63;;;;;;;;;;5000108;28;20553;-88
2022/11/16 09:46:07;;;;;;;21.63;9.55;;;;;;;;;;5003581;28;20128;-88
2022/11/16 09:48:35;;;;;;;27.40;10.30;;;;;;;;;;5007988;28;20064;-87
2022/11/16 09:51:09;;;;;;;17.90;9.50;;;;;;;;;;5007811;28;20033;-88
2022/11/16 09:53:49;;;;;;;20.17;9.90;;;;;;;;;;5010837;28;20129;-87
2022/11/16 09:56:22;;;;;;;16.42;9.43;;;;;;;;;;4971349;28;20141;-88
2022/11/16 09:59:02;;;;;;;21.25;10.27;;;;;;;;;;4994107;28;20038;-87
2022/11/16 10:01:30;;;;;;;19.60;9.38;;;;;;;;;;4983797;28;20038;-87
2022/11/16 10:04:03;;;;;;;22.48;9.70;;;;;;;;;;4981772;28;20021;-87
2022/11/16 10:06:38;;;;;;;23.92;10.13;;;;;;;;;;4987249;28;20033;-87
2022/11/16 10:09:04;;;;;;;24.10;11.88;;;;;;;;;;4982191;28;20389;-88
2022/11/16 10:11:39;;;;;;;24.17;11.43;;;;;;;;;;4960575;28;20081;-88
2022/11/16 10:14:15;;;;;;;23.47;10.57;;;;;;;;;;4986941;28;20397;-87
2022/11/16 10:17:17;;;;;;;25.52;11.48;;;;;;;;;;4999390;28;20049;-86
2022/11/16 10:19:55;;;;;;;18.05;9.93;;;;;;;;;;4908439;29;20039;-86
2022/11/16 10:22:20;;;;;;;25.52;12.43;;;;;;;;;;4971525;28;20446;-86
2022/11/16 10:24:54;;;;;;;21.80;11.27;;;;;;;;;;4983484;28;20418;-86
2022/11/16 10:27:33;;;;;;;22.55;10.65;;;;;;;;;;4982690;28;20060;-85
2022/11/16 10:30:12;;;;;;;19.80;12.10;;;;;;;;;;4999084;28;20065;-86
2022/11/16 10:33:00;;;;;;;18.17;10.02;;;;;;;;;;4985506;28;20429;-86
2022/11/16 10:35:32;;;;;;;19.40;10.93;;;;;;;;;;4985318;28;20485;-86
2022/11/16 10:38:01;;;;;;;23.20;12.32;;;;;;;;;;4978579;28;20164;-86
2022/11/16 10:40:37;;;;;;;19.75;10.65;;;;;;;;;;5005195;28;20495;-86
2022/11/16 10:43:23;;;;;;;29.23;13.00;;;;;;;;;;4987496;28;20077;-86
2022/11/16 10:46:11;;;;;;;25.38;12.48;;;;;;;;;;4983740;28;20512;-86
2022/11/16 10:49:10;;;;;;;19.25;11.07;;;;;;;;;;4983811;28;20474;-86
2022/11/16 10:51:36;;;;;;;20.90;10.90;;;;;;;;;;4981453;28;20061;-86
2022/11/16 10:54:18;;;;;;;24.30;11.43;;;;;;;;;;4995092;28;20437;-86
2022/11/16 10:57:04;;;;;;;21.73;10.90;;;;;;;;;;4983384;28;20422;-86
2022/11/16 10:59:41;;;;;;;17.80;10.10;;;;;;;;;;4994959;28;20591;-86
2022/11/16 11:02:22;;;;;;;18.90;10.80;;;;;;;;;;4983615;28;20068;-86
2022/11/16 11:05:02;;;;;;;18.23;11.10;;;;;;;;;;4987282;28;20022;-86
2022/11/16 11:07:33;;;;;;;17.63;9.45;;;;;;;;;;4979778;28;20030;-86
2022/11/16 11:09:59;;;;;;;17.85;9.52;;;;;;;;;;4986330;28;20092;-86
2022/11/16 11:12:38;;;;;;;18.35;11.07;;;;;;;;;;4988897;28;20030;-86
2022/11/16 11:15:04;;;;;;;12.80;8.55;;;;;;;;;;4971270;28;20030;-86
2022/11/16 11:17:32;;;;;;;14.50;9.30;;;;;;;;;;4996426;28;20057;-87
2022/11/16 11:20:17;;;;;;;13.18;8.32;;;;;;;;;;4988115;28;20037;-86
2022/11/16 11:22:54;;;;;;;16.15;8.00;;;;;;;;;;4988038;28;20486;-87
2022/11/16 11:25:31;;;;;;;19.60;8.43;;;;;;;;;;4996185;28;20017;-87
2022/11/16 11:28:09;;;;;;;17.13;8.88;;;;;;;;;;5000098;28;20056;-87
2022/11/16 11:30:35;;;;;;;19.13;8.63;;;;;;;;;;4979423;28;20431;-87
2022/11/16 11:33:08;;;;;;;18.50;8.75;;;;;;;;;;4969360;28;20531;-87
2022/11/16 11:35:34;;;;;;;15.25;7.35;;;;;;;;;;4996003;28;20038;-87
2022/11/16 11:38:02;;;;;;;16.40;7.38;;;;;;;;;;4961810;28;20379;-87
2022/11/16 11:40:31;;;;;;;17.58;6.35;;;;;;;;;;4980556;28;20333;-87
2022/11/16 11:42:58;;;;;;;11.25;6.65;;;;;;;;;;4980315;28;20639;-87
2022/11/16 11:45:38;;;;;;;8.90;4.72;;;;;;;;;;4997679;28;20161;-87
2022/11/16 11:48:27;;;;;;;15.40;7.80;;;;;;;;;;4998451;28;20521;-87
2022/11/16 11:50:55;;;;;;;12.40;6.10;;;;;;;;;;4978936;28;20413;-87
2022/11/16 11:53:47;;;;;;;20.58;6.20;;;;;;;;;;4987802;28;20048;-89
2022/11/16 11:56:20;;;;;;;8.82;4.78;;;;;;;;;;4998512;28;20034;-89
2022/11/16 11:58:46;;;;;;;24.73;7.80;;;;;;;;;;5004239;28;20049;-89
2022/11/16 12:01:19;;;;;;;19.73;7.63;;;;;;;;;;4997381;28;20552;-89
2022/11/16 12:04:03;;;;;;;17.33;6.90;;;;;;;;;;5016323;28;20499;-89
2022/11/16 12:06:29;;;;;;;9.00;5.18;;;;;;;;;;5013202;28;20054;-89
2022/11/16 12:09:11;;;;;;;19.08;5.38;;;;;;;;;;4998963;28;20363;-89
2022/11/16 12:11:44;;;;;;;14.80;5.72;;;;;;;;;;4995411;28;20116;-89
2022/11/16 12:14:10;;;;;;;14.32;5.03;;;;;;;;;;5004943;28;20615;-89
2022/11/16 12:16:46;;;;;;;9.00;4.97;;;;;;;;;;5008671;28;20480;-89
2022/11/16 12:19:18;;;;;;;8.93;4.78;;;;;;;;;;5019300;28;20743;-89
2022/11/16 12:22:00;;;;;;;11.35;4.40;;;;;;;;;;5006988;28;20040;-89
2022/11/16 12:24:41;;;;;;;15.43;6.25;;;;;;;;;;5008302;28;20100;-89
2022/11/16 12:27:07;;;;;;;15.07;5.07;;;;;;;;;;5005590;28;20044;-88
2022/11/16 12:30:00;;;;;;;17.88;3.83;;;;;;;;;;5012816;28;20025;-88
2022/11/16 12:32:37;;;;;;;9.77;4.53;;;;;;;;;;5006998;28;20049;-88
2022/11/16 12:35:10;;;;;;;8.07;3.97;;;;;;;;;;5021864;28;20022;-89
2022/11/16 12:37:52;;;;;;;11.25;4.85;;;;;;;;;;5007154;28;20022;-88
2022/11/16 12:40:18;;;;;;;11.00;3.58;;;;;;;;;;5008329;28;20061;-89
2022/11/16 12:42:44;;;;;;;8.07;3.40;;;;;;;;;;5007042;28;20021;-88
2022/11/16 12:45:17;;;;;;;9.52;5.78;;;;;;;;;;5017429;28;20030;-88
2022/11/16 12:48:02;;;;;;;10.80;3.70;;;;;;;;;;5002320;28;20040;-88
2022/11/16 12:50:37;;;;;;;3.13;2.35;;;;;;;;;;5003708;28;20394;-87
2022/11/16 12:53:14;;;;;;;7.18;2.67;;;;;;;;;;5004566;28;20462;-88
2022/11/16 12:55:56;;;;;;;13.13;2.67;;;;;;;;;;4991596;28;20077;-88
2022/11/16 12:58:45;;;;;;;7.75;2.30;;;;;;;;;;4983588;28;20042;-89
2022/11/16 13:01:18;;;;;;;6.20;2.92;;;;;;;;;;4949134;28;20572;-89
2022/11/16 13:03:49;;;;;;;8.07;2.70;;;;;;;;;;5000947;28;20545;-89
2022/11/16 13:06:17;;;;;;;7.05;2.78;;;;;;;;;;4983321;28;20407;-86
2022/11/16 13:09:02;;;;;;;5.15;1.95;;;;;;;;;;4991197;28;20125;-87
2022/11/16 13:11:28;;;;;;;11.48;2.42;;;;;;;;;;4990125;28;20038;-87
2022/11/16 13:14:02;;;;;;;8.90;2.60;;;;;;;;;;4985685;28;20524;-87
2022/11/16 13:16:28;;;;;;;8.90;2.30;;;;;;;;;;4988003;28;20029;-87
2022/11/16 13:18:58;;;;;;;6.75;1.77;;;;;;;;;;4973680;28;20124;-86
2022/11/16 13:21:27;;;;;;;6.40;1.83;;;;;;;;;;4997787;28;20108;-86
2022/11/16 13:23:56;;;;;;;8.43;2.75;;;;;;;;;;4997768;28;20497;-87
2022/11/16 13:26:27;;;;;;;5.45;1.75;;;;;;;;;;4996517;28;20363;-86
2022/11/16 13:29:03;;;;;;;10.20;2.42;;;;;;;;;;4980949;28;20038;-86
2022/11/16 13:31:42;;;;;;;6.80;2.22;;;;;;;;;;4977448;28;20523;-87
2022/11/16 13:34:21;;;;;;;5.07;1.67;;;;;;;;;;4998659;28;20405;-86
2022/11/16 13:36:47;;;;;;;7.32;2.45;;;;;;;;;;4980925;28;20785;-87
2022/11/16 13:39:21;;;;;;;2.80;2.03;;;;;;;;;;4982441;28;20050;-87
2022/11/16 13:42:07;;;;;;;6.82;2.10;;;;;;;;;;4979407;28;20501;-86
2022/11/16 13:44:34;;;;;;;6.93;1.65;;;;;;;;;;4972693;28;20022;-86
2022/11/16 13:47:04;;;;;;;11.25;2.38;;;;;;;;;;4964764;28;20042;-87
2022/11/16 13:49:33;;;;;;;8.38;1.95;;;;;;;;;;4992643;28;20021;-87
2022/11/16 13:52:10;;;;;;;11.57;1.85;;;;;;;;;;4980941;28;20572;-86
2022/11/16 13:54:40;;;;;;;7.03;2.22;;;;;;;;;;5002741;28;20099;-86
2022/11/16 13:57:20;;;;;;;6.85;1.77;;;;;;;;;;5000124;28;20053;-86
2022/11/16 13:59:47;;;;;;;12.90;1.98;;;;;;;;;;4997592;28;20042;-86
2022/11/16 14:02:31;;;;;;;4.07;1.48;;;;;;;;;;5004983;28;20030;-86
2022/11/16 14:05:02;;;;;;;6.88;2.10;;;;;;;;;;4994767;28;20030;-86
2022/11/16 14:07:28;;;;;;;11.02;2.55;;;;;;;;;;4995638;28;20401;-86
2022/11/16 14:09:54;;;;;;;7.78;1.77;;;;;;;;;;4998594;28;20424;-86
2022/11/16 14:12:39;;;;;;;15.52;2.08;;;;;;;;;;4999839;28;20030;-86
2022/11/16 14:15:24;;;;;;;7.47;1.70;;;;;;;;;;5005708;28;20037;-86
2022/11/16 14:17:53;;;;;;;12.18;2.30;;;;;;;;;;4998054;28;20075;-87
2022/11/16 14:20:31;;;;;;;8.90;2.10;;;;;;;;;;4997499;28;20028;-86
2022/11/16 14:23:21;;;;;;;11.30;3.67;;;;;;;;;;5001861;28;20437;-87
2022/11/16 14:26:06;;;;;;;10.98;2.05;;;;;;;;;;5003943;28;20036;-86
2022/11/16 14:28:50;;;;;;;8.57;2.28;;;;;;;;;;5016841;28;20092;-87
2022/11/16 14:31:19;;;;;;;10.35;2.65;;;;;;;;;;5001277;28;20069;-87
2022/11/16 14:33:48;;;;;;;14.60;2.35;;;;;;;;;;4998066;28;20433;-86
2022/11/16 14:36:14;;;;;;;6.20;2.13;;;;;;;;;;4999078;28;20120;-87
2022/11/16 14:38:44;;;;;;;8.27;2.08;;;;;;;;;;4981589;28;20037;-87
2022/11/16 14:41:21;;;;;;;9.48;2.67;;;;;;;;;;5003508;28;20366;-86
2022/11/16 14:43:49;;;;;;;9.15;2.45;;;;;;;;;;5000439;28;20038;-87
2022/11/16 14:46:30;;;;;;;9.70;2.35;;;;;;;;;;4993386;28;20034;-86
2022/11/16 14:48:58;;;;;;;11.20;2.67;;;;;;;;;;5015346;28;20398;-86
2022/11/16 14:51:26;;;;;;;11.32;2.67;;;;;;;;;;5011910;28;20037;-87
2022/11/16 14:53:55;;;;;;;19.60;2.47;;;;;;;;;;4998528;28;20057;-87
2022/11/16 14:56:21;;;;;;;12.23;2.40;;;;;;;;;;4976851;28;20450;-87
2022/11/16 14:59:00;;;;;;;19.15;3.20;;;;;;;;;;4977410;28;20044;-87
2022/11/16 15:01:31;;;;;;;15.23;2.30;;;;;;;;;;4962711;28;20466;-86
2022/11/16 15:04:01;;;;;;;5.32;1.90;;;;;;;;;;4981226;28;20064;-87
2022/11/16 15:06:28;;;;;;;17.77;2.70;;;;;;;;;;4976356;28;20045;-86
2022/11/16 15:08:57;;;;;;;9.77;2.33;;;;;;;;;;5000581;28;20041;-86
2022/11/16 15:12:40;;;;;;;13.35;3.15;;;;;;;;;;4984703;28;20030;-87
2022/11/16 15:14:16;;;;;;;8.98;2.40;;;;;;;;;;5000693;28;20033;-88
2022/11/16 15:16:50;;;;;;;10.20;2.60;;;;;;;;;;4986346;28;20034;-87
2022/11/16 15:19:16;;;;;;;23.90;4.00;;;;;;;;;;4966704;28;20046;-88
2022/11/16 15:21:52;;;;;;;15.13;2.30;;;;;;;;;;4987049;28;20049;-87
2022/11/16 15:24:25;;;;;;;14.95;3.15;;;;;;;;;;4979634;28;20026;-87
2022/11/16 15:26:51;;;;;;;15.48;2.78;;;;;;;;;;4982667;28;20034;-87
2022/11/16 15:29:19;;;;;;;12.70;2.72;;;;;;;;;;4980373;28;20041;-87
2022/11/16 15:31:45;;;;;;;11.77;2.70;;;;;;;;;;4981455;28;20608;-87